LEMD/MAD METAR and TAF weather

Enter ICAO airport designator
Station Type Date Time Source
LEMD METAR 2024/05/28 23:00 UTC NOAA

LEMD 282300Z 33005KT CAVOK 21/09 Q1018 NOSIG


Station Type Date Time Source
LEMD Decoded METAR 2024/05/28 23:00 UTC NOAA

Madrid / Barajas, Spain (LEMD) 40-27N 003-33W 582M
May 28, 2024 - 07:00 PM EDT / 2024.05.28 2300 UTC
Wind: from the NNW (330 degrees) at 6 MPH (5 KT):0
Visibility: greater than 7 mile(s):0
Temperature: 69 F (21 C)
Dew Point: 48 F (9 C)
Relative Humidity: 46%
Pressure (altimeter): 30.06 in. Hg (1018 hPa)
ob: LEMD 282300Z 33005KT CAVOK 21/09 Q1018 NOSIG
cycle: 23

Station Type Date Time Source
LEMD TAF 2024/05/28 18:27 UTC NOAA